createdAt,value
2019-02-18T00:00:19.169Z,4.40
2019-02-18T00:02:48.294Z,4.40
2019-02-18T00:05:17.264Z,4.40
2019-02-18T00:07:46.282Z,4.40
2019-02-18T00:10:15.188Z,4.30
2019-02-18T00:12:44.144Z,4.30
2019-02-18T00:15:13.275Z,4.30
2019-02-18T00:17:42.219Z,4.30
2019-02-18T00:20:11.311Z,4.10
2019-02-18T00:22:40.269Z,4.10
2019-02-18T00:25:09.465Z,3.90
2019-02-18T00:27:38.395Z,3.80
2019-02-18T00:30:07.587Z,3.70
2019-02-18T00:32:36.532Z,3.60
2019-02-18T00:35:10.550Z,3.60
2019-02-18T00:37:39.524Z,3.50
2019-02-18T00:40:08.629Z,3.50
2019-02-18T00:42:37.624Z,3.40
2019-02-18T00:45:06.856Z,3.30
2019-02-18T00:47:35.807Z,3.30
2019-02-18T00:50:05.154Z,3.20
2019-02-18T00:52:34.105Z,3.20
2019-02-18T00:55:03.008Z,3.30
2019-02-18T00:57:31.992Z,3.20
2019-02-18T01:00:00.938Z,3.10
2019-02-18T01:02:29.930Z,3.10
2019-02-18T01:04:58.896Z,3.00
2019-02-18T01:07:34.504Z,3.00
2019-02-18T01:09:58.697Z,2.90
2019-02-18T01:12:27.682Z,2.90
2019-02-18T01:14:56.617Z,2.90
2019-02-18T01:17:25.559Z,2.90
2019-02-18T01:19:54.586Z,2.80
2019-02-18T01:22:23.754Z,2.80
2019-02-18T01:24:52.890Z,2.70
2019-02-18T01:27:21.991Z,2.60
2019-02-18T01:29:50.992Z,2.60
2019-02-18T01:32:20.088Z,2.60
2019-02-18T01:34:49.038Z,2.50
2019-02-18T01:37:18.040Z,2.60
2019-02-18T01:39:46.981Z,2.60
2019-02-18T01:42:16.059Z,2.50
2019-02-18T01:44:45.097Z,2.60
2019-02-18T01:47:14.119Z,2.60
2019-02-18T01:49:43.285Z,2.60
2019-02-18T01:52:12.220Z,2.60
2019-02-18T01:54:41.139Z,2.70
2019-02-18T01:57:10.135Z,2.90
2019-02-18T01:59:39.064Z,3.00
2019-02-18T02:02:08.001Z,3.10
2019-02-18T02:04:37.156Z,3.20
2019-02-18T02:07:06.080Z,3.10
2019-02-18T02:09:35.060Z,3.10
2019-02-18T02:12:04.182Z,3.00
2019-02-18T02:14:33.097Z,2.90
2019-02-18T02:17:02.048Z,2.80
2019-02-18T02:19:31.009Z,2.70
2019-02-18T02:21:59.945Z,2.70
2019-02-18T02:24:28.849Z,2.60
2019-02-18T02:26:57.815Z,2.50
2019-02-18T02:29:26.742Z,2.50
2019-02-18T02:31:55.754Z,2.50
2019-02-18T02:34:24.833Z,2.40
2019-02-18T02:36:53.836Z,2.40
2019-02-18T02:39:22.840Z,2.30
2019-02-18T02:41:51.919Z,2.30
2019-02-18T02:44:20.931Z,2.30
2019-02-18T02:46:49.890Z,2.20
2019-02-18T02:49:18.869Z,2.30
2019-02-18T02:51:47.789Z,2.50
2019-02-18T02:54:16.854Z,2.50
2019-02-18T02:56:45.858Z,2.50
2019-02-18T02:59:14.819Z,2.40
2019-02-18T03:01:43.764Z,2.30
2019-02-18T03:04:12.791Z,2.20
2019-02-18T03:06:41.695Z,2.20
2019-02-18T03:09:10.643Z,2.20
2019-02-18T03:11:39.636Z,2.20
2019-02-18T03:14:08.545Z,2.10
2019-02-18T03:16:37.473Z,2.10
2019-02-18T03:19:06.432Z,2.10
2019-02-18T03:21:35.476Z,2.10
2019-02-18T03:24:04.497Z,2.10
2019-02-18T03:26:33.447Z,2.00
2019-02-18T03:29:45.532Z,1.90
2019-02-18T03:32:14.579Z,1.90
2019-02-18T03:34:45.440Z,2.00
2019-02-18T03:37:14.395Z,2.00
2019-02-18T03:39:43.399Z,2.10
2019-02-18T03:42:12.664Z,2.10
2019-02-18T03:44:41.589Z,2.20
2019-02-18T03:47:10.542Z,2.20
2019-02-18T03:49:39.525Z,2.20
2019-02-18T03:52:08.467Z,2.20
2019-02-18T03:54:37.511Z,2.10
2019-02-18T03:57:06.492Z,2.10
2019-02-18T03:59:35.759Z,2.10
2019-02-18T04:02:04.774Z,2.00
2019-02-18T04:04:33.840Z,2.00
2019-02-18T04:07:02.878Z,1.90
2019-02-18T04:09:31.848Z,1.90
2019-02-18T04:12:00.836Z,1.90
2019-02-18T04:14:29.890Z,1.80
2019-02-18T04:16:58.946Z,1.80
2019-02-18T04:19:27.878Z,1.80
2019-02-18T04:21:56.816Z,1.70
2019-02-18T04:24:25.779Z,1.70
2019-02-18T04:26:54.743Z,1.70
2019-02-18T04:29:23.706Z,1.70
2019-02-18T04:31:52.710Z,1.70
2019-02-18T04:34:21.644Z,1.80
2019-02-18T04:36:50.555Z,1.70
2019-02-18T04:39:19.532Z,1.70
2019-02-18T04:41:48.528Z,1.70
2019-02-18T04:44:19.014Z,1.70
2019-02-18T04:46:48.007Z,1.60
2019-02-18T04:49:16.912Z,1.50
2019-02-18T04:51:45.880Z,1.50
2019-02-18T04:54:14.865Z,1.50
2019-02-18T04:56:43.849Z,1.50
2019-02-18T04:59:12.787Z,1.40
2019-02-18T05:01:41.747Z,1.40
2019-02-18T05:04:10.697Z,1.40
2019-02-18T05:06:39.625Z,1.40
2019-02-18T05:09:08.684Z,1.40
2019-02-18T05:11:37.585Z,1.40
2019-02-18T05:14:06.500Z,1.40
2019-02-18T05:16:35.543Z,1.50
2019-02-18T05:19:04.424Z,1.60
2019-02-18T05:21:33.346Z,1.60
2019-02-18T05:24:02.452Z,1.70
2019-02-18T05:26:31.573Z,1.80
2019-02-18T05:29:00.505Z,1.80
2019-02-18T05:31:29.458Z,1.80
2019-02-18T05:33:58.389Z,1.90
2019-02-18T05:36:27.339Z,2.00
2019-02-18T05:38:56.369Z,2.00
2019-02-18T05:41:25.317Z,2.00
2019-02-18T05:43:54.410Z,2.00
2019-02-18T05:46:23.526Z,2.00
2019-02-18T05:48:52.548Z,2.00
2019-02-18T05:51:21.516Z,2.00
2019-02-18T05:53:50.533Z,1.90
2019-02-18T05:56:19.433Z,1.90
2019-02-18T05:58:48.501Z,1.80
2019-02-18T06:01:19.222Z,1.80
2019-02-18T06:03:48.148Z,1.80
2019-02-18T06:06:17.131Z,1.90
2019-02-18T06:08:46.063Z,1.90
2019-02-18T06:11:15.109Z,2.10
2019-02-18T06:13:44.093Z,2.20
2019-02-18T06:16:13.035Z,2.10
2019-02-18T06:18:41.988Z,2.10
2019-02-18T06:21:10.946Z,2.00
2019-02-18T06:23:39.876Z,1.90
2019-02-18T06:26:08.816Z,1.90
2019-02-18T06:28:37.767Z,1.90
2019-02-18T06:31:08.109Z,1.90
2019-02-18T06:33:37.049Z,1.90
2019-02-18T06:36:06.146Z,2.10
2019-02-18T06:38:35.162Z,2.10
2019-02-18T06:41:04.077Z,2.10
2019-02-18T06:43:33.493Z,2.10
2019-02-18T06:46:08.653Z,2.10
2019-02-18T06:48:41.605Z,2.10
2019-02-18T06:51:10.588Z,2.10
2019-02-18T06:53:39.714Z,2.00
2019-02-18T06:56:08.835Z,2.00
2019-02-18T06:59:03.219Z,1.90
2019-02-18T07:01:48.348Z,1.90
2019-02-18T07:04:35.422Z,1.90
2019-02-18T07:07:29.132Z,2.00
2019-02-18T07:10:04.233Z,2.00
2019-02-18T07:12:36.247Z,2.00
2019-02-18T07:15:05.736Z,2.10
2019-02-18T07:17:34.692Z,2.10
2019-02-18T07:20:03.842Z,2.10
2019-02-18T07:22:32.835Z,2.20
2019-02-18T07:25:01.785Z,2.30
2019-02-18T07:27:30.739Z,2.40
2019-02-18T07:29:59.711Z,2.60
2019-02-18T07:32:28.715Z,2.70
2019-02-18T07:34:57.633Z,2.80
2019-02-18T07:37:26.559Z,2.80
2019-02-18T07:40:01.634Z,2.90
2019-02-18T07:42:26.128Z,3.00
2019-02-18T07:44:55.048Z,3.10
2019-02-18T07:47:24.128Z,3.20
2019-02-18T07:49:53.154Z,3.30
2019-02-18T07:52:23.448Z,3.40
2019-02-18T07:54:52.435Z,3.40
2019-02-18T07:57:21.472Z,3.50
2019-02-18T07:59:50.488Z,3.50
2019-02-18T08:02:19.463Z,3.60
2019-02-18T08:04:48.413Z,3.70
2019-02-18T08:07:17.369Z,3.80
2019-02-18T08:09:46.698Z,3.80
2019-02-18T08:12:15.635Z,3.90
2019-02-18T08:14:44.650Z,4.00
2019-02-18T08:17:13.665Z,4.10
2019-02-18T08:19:44.103Z,4.20
2019-02-18T08:22:13.041Z,4.30
2019-02-18T08:24:42.047Z,4.30
2019-02-18T08:27:11.051Z,4.50
2019-02-18T08:29:39.980Z,4.70
2019-02-18T08:32:10.774Z,4.80
2019-02-18T08:34:39.694Z,4.90
2019-02-18T08:37:09.362Z,5.00
2019-02-18T08:39:38.389Z,5.00
2019-02-18T08:42:07.296Z,5.10
2019-02-18T08:44:36.236Z,5.20
2019-02-18T08:47:05.268Z,5.20
2019-02-18T08:49:34.229Z,5.30
2019-02-18T08:52:03.246Z,5.40
2019-02-18T08:54:32.234Z,5.50
2019-02-18T08:57:01.219Z,5.70
2019-02-18T08:59:30.119Z,5.70
2019-02-18T09:01:59.112Z,5.80
2019-02-18T09:04:28.276Z,6.00
2019-02-18T09:06:57.248Z,6.00
2019-02-18T09:09:26.204Z,6.10
2019-02-18T09:11:55.292Z,6.20
2019-02-18T09:14:24.361Z,6.30
2019-02-18T09:16:53.384Z,6.30
2019-02-18T09:19:22.392Z,6.40
2019-02-18T09:21:58.278Z,6.50
2019-02-18T09:24:31.600Z,6.60
2019-02-18T09:27:00.515Z,6.70
2019-02-18T09:29:29.543Z,6.80
2019-02-18T09:31:58.499Z,6.90
2019-02-18T09:34:27.500Z,7.00
2019-02-18T09:36:56.569Z,7.10
2019-02-18T09:39:31.246Z,7.20
2019-02-18T09:41:56.275Z,7.40
2019-02-18T09:44:25.328Z,7.50
2019-02-18T09:46:54.296Z,7.60
2019-02-18T09:49:23.218Z,7.70
2019-02-18T09:51:52.214Z,7.80
2019-02-18T09:54:21.139Z,7.90
2019-02-18T09:56:50.134Z,8.00
2019-02-18T09:59:19.124Z,8.20
2019-02-18T10:01:48.081Z,8.30
2019-02-18T10:04:17.091Z,8.40
2019-02-18T10:06:46.107Z,8.50
2019-02-18T10:09:15.056Z,8.60
2019-02-18T10:11:44.065Z,8.70
2019-02-18T10:14:13.210Z,8.80
2019-02-18T10:16:42.247Z,8.90
2019-02-18T10:19:11.252Z,9.00
2019-02-18T10:21:40.328Z,9.10
2019-02-18T10:24:09.341Z,9.20
2019-02-18T10:26:38.381Z,9.30
2019-02-18T10:29:07.348Z,9.40
2019-02-18T10:31:38.197Z,9.50
2019-02-18T10:34:07.133Z,9.60
2019-02-18T10:36:36.111Z,9.70
2019-02-18T10:39:05.928Z,9.80
2019-02-18T10:41:34.880Z,9.90
2019-02-18T10:44:03.967Z,10.00
2019-02-18T10:46:32.920Z,10.10
2019-02-18T10:49:01.854Z,10.20
2019-02-18T10:51:30.822Z,10.20
2019-02-18T10:53:59.928Z,10.30
2019-02-18T10:56:29.332Z,10.40
2019-02-18T10:58:58.505Z,10.50
2019-02-18T11:01:27.421Z,10.60
2019-02-18T11:03:56.423Z,10.70
2019-02-18T11:06:25.407Z,10.80
2019-02-18T11:08:54.385Z,10.90
2019-02-18T11:11:23.416Z,11.00
2019-02-18T11:13:52.359Z,11.10
2019-02-18T11:16:21.269Z,11.20
2019-02-18T11:18:50.284Z,11.30
2019-02-18T11:21:19.336Z,11.30
2019-02-18T11:23:48.312Z,11.40
2019-02-18T11:26:17.368Z,11.50
2019-02-18T11:28:46.457Z,11.60
2019-02-18T11:31:15.468Z,11.70
2019-02-18T11:33:44.786Z,11.70
2019-02-18T11:36:13.817Z,11.80
2019-02-18T11:38:42.739Z,11.90
2019-02-18T11:41:11.745Z,12.00
2019-02-18T11:43:40.737Z,12.10
2019-02-18T11:46:09.790Z,12.10
2019-02-18T11:48:39.101Z,12.30
2019-02-18T11:51:08.179Z,12.40
2019-02-18T11:53:37.144Z,12.50
2019-02-18T11:56:06.108Z,12.50
2019-02-18T11:58:35.064Z,12.60
2019-02-18T12:01:04.131Z,12.70
2019-02-18T12:03:33.141Z,12.80
2019-02-18T12:06:02.123Z,12.90
2019-02-18T12:08:31.133Z,12.90
2019-02-18T12:11:00.318Z,13.00
2019-02-18T12:13:29.371Z,13.10
2019-02-18T12:15:58.391Z,13.10
2019-02-18T12:18:27.691Z,13.20
2019-02-18T12:20:56.679Z,13.20
2019-02-18T12:23:25.792Z,13.20
2019-02-18T12:25:54.780Z,13.30
2019-02-18T12:28:23.817Z,13.30
2019-02-18T12:30:52.796Z,13.40
2019-02-18T12:33:21.833Z,13.40
2019-02-18T12:35:50.856Z,13.40
2019-02-18T12:38:19.856Z,13.50
2019-02-18T12:40:48.923Z,13.50
2019-02-18T12:43:17.944Z,13.70
2019-02-18T12:45:46.935Z,13.80
2019-02-18T12:48:16.333Z,13.70
2019-02-18T12:50:45.471Z,13.80
2019-02-18T12:53:14.468Z,13.80
2019-02-18T12:55:43.501Z,13.80
2019-02-18T12:58:12.613Z,13.80
2019-02-18T13:00:41.748Z,13.80
2019-02-18T13:03:10.836Z,13.90
2019-02-18T13:05:39.960Z,13.90
2019-02-18T13:08:09.052Z,14.00
2019-02-18T13:10:38.157Z,13.90
2019-02-18T13:13:07.213Z,14.00
2019-02-18T13:15:36.255Z,14.00
2019-02-18T13:20:34.240Z,14.00
2019-02-18T13:23:03.223Z,14.10
2019-02-18T13:25:32.469Z,14.10
2019-02-18T13:28:08.349Z,14.10
2019-02-18T13:30:32.092Z,14.10
2019-02-18T13:33:01.108Z,14.20
2019-02-18T13:35:30.224Z,14.20
2019-02-18T13:38:00.159Z,14.30
2019-02-18T13:40:29.317Z,14.30
2019-02-18T13:42:58.360Z,14.30
2019-02-18T13:45:27.287Z,14.30
2019-02-18T13:47:56.456Z,14.30
2019-02-18T13:50:25.601Z,14.30
2019-02-18T13:52:54.685Z,14.20
2019-02-18T13:55:24.048Z,14.30
2019-02-18T13:57:53.054Z,14.20
2019-02-18T14:00:22.220Z,14.30
2019-02-18T14:02:51.448Z,14.30
2019-02-18T14:05:20.853Z,14.30
2019-02-18T14:07:50.070Z,14.30
2019-02-18T14:10:19.701Z,14.30
2019-02-18T14:12:48.901Z,14.30
2019-02-18T14:15:18.053Z,14.20
2019-02-18T14:17:50.701Z,14.20
2019-02-18T14:20:19.965Z,14.20
2019-02-18T14:22:49.051Z,14.20
2019-02-18T14:25:18.120Z,14.10
2019-02-18T14:27:47.209Z,14.10
2019-02-18T14:30:16.482Z,14.00
2019-02-18T14:32:45.955Z,14.10
2019-02-18T14:35:16.463Z,14.10
2019-02-18T14:37:45.747Z,14.10
2019-02-18T14:40:16.364Z,14.00
2019-02-18T14:42:45.742Z,13.90
2019-02-18T14:45:15.394Z,13.90
2019-02-18T14:47:44.544Z,13.80
2019-02-18T14:50:16.134Z,13.80
2019-02-18T14:52:45.618Z,13.80
2019-02-18T14:55:14.971Z,13.80
2019-02-18T14:57:44.017Z,13.70
2019-02-18T15:00:20.336Z,13.70
2019-02-18T15:02:50.372Z,13.70
2019-02-18T15:05:19.518Z,13.70
2019-02-18T15:07:48.547Z,13.60
2019-02-18T15:10:17.650Z,13.70
2019-02-18T15:12:46.810Z,13.60
2019-02-18T15:15:16.507Z,13.60
2019-02-18T15:17:45.589Z,13.50
2019-02-18T15:20:14.699Z,13.50
2019-02-18T15:22:43.710Z,13.50
2019-02-18T15:25:13.156Z,13.40
2019-02-18T15:27:42.225Z,13.30
2019-02-18T15:30:12.553Z,13.20
2019-02-18T15:32:41.658Z,13.20
2019-02-18T15:35:10.869Z,13.00
2019-02-18T15:37:40.028Z,13.00
2019-02-18T15:40:10.065Z,12.90
2019-02-18T15:42:42.334Z,12.90
2019-02-18T15:45:10.123Z,12.90
2019-02-18T15:47:39.313Z,12.80
2019-02-18T15:50:09.837Z,12.60
2019-02-18T15:52:38.941Z,12.50
2019-02-18T15:55:08.272Z,12.50
2019-02-18T15:57:37.419Z,12.30
2019-02-18T16:00:08.828Z,12.20
2019-02-18T16:02:37.961Z,12.10
2019-02-18T16:05:07.579Z,12.10
2019-02-18T16:07:36.748Z,12.00
2019-02-18T16:10:06.291Z,11.90
2019-02-18T16:12:35.450Z,11.80
2019-02-18T16:15:05.167Z,11.70
2019-02-18T16:17:34.399Z,11.50
2019-02-18T16:20:04.776Z,11.40
2019-02-18T16:22:33.813Z,11.30
2019-02-18T16:25:02.980Z,11.20
2019-02-18T16:27:31.951Z,11.10
2019-02-18T16:30:03.917Z,10.90
2019-02-18T16:32:35.776Z,10.80
2019-02-18T16:35:05.075Z,10.60
2019-02-18T16:37:34.516Z,10.50
2019-02-18T16:40:03.733Z,10.30
2019-02-18T16:42:32.843Z,10.20
2019-02-18T16:45:02.296Z,10.10
2019-02-18T16:47:31.354Z,9.90
2019-02-18T16:50:00.340Z,9.80
2019-02-18T16:52:29.322Z,9.70
2019-02-18T16:54:58.436Z,9.60
2019-02-18T16:57:27.505Z,9.40
2019-02-18T16:59:56.532Z,9.30
2019-02-18T17:02:27.013Z,9.10
2019-02-18T17:04:56.070Z,9.00
2019-02-18T17:07:25.075Z,8.90
2019-02-18T17:09:54.139Z,8.80
2019-02-18T17:12:23.232Z,8.70
2019-02-18T17:14:52.255Z,8.60
2019-02-18T17:17:21.685Z,8.50
2019-02-18T17:19:50.793Z,8.40
2019-02-18T17:22:19.800Z,8.30
2019-02-18T17:24:48.853Z,8.20
2019-02-18T17:27:17.851Z,8.20
2019-02-18T17:29:47.040Z,8.10
2019-02-18T17:32:16.035Z,8.00
2019-02-18T17:34:45.031Z,7.90
2019-02-18T17:37:14.048Z,7.90
2019-02-18T17:39:43.107Z,7.90
2019-02-18T17:42:13.420Z,7.80
2019-02-18T17:44:42.461Z,7.70
2019-02-18T17:47:11.507Z,7.60
2019-02-18T17:49:40.808Z,7.60
2019-02-18T17:52:09.827Z,7.60
2019-02-18T17:54:38.867Z,7.50
2019-02-18T17:57:07.950Z,7.40
2019-02-18T17:59:36.979Z,7.40
2019-02-18T18:02:06.198Z,7.40
2019-02-18T18:04:35.647Z,7.30
2019-02-18T18:07:04.653Z,7.20
2019-02-18T18:09:33.720Z,7.20
2019-02-18T18:12:03.968Z,7.20
2019-02-18T18:14:32.928Z,7.10
2019-02-18T18:17:19.481Z,7.00
2019-02-18T18:19:48.517Z,6.90
2019-02-18T18:22:17.645Z,6.90
2019-02-18T18:24:47.023Z,6.80
2019-02-18T18:27:16.023Z,6.70
2019-02-18T18:29:45.147Z,6.70
2019-02-18T18:32:14.288Z,6.60
2019-02-18T18:34:43.337Z,6.60
2019-02-18T18:37:12.382Z,6.60
2019-02-18T18:39:41.427Z,6.50
2019-02-18T18:42:10.399Z,6.50
2019-02-18T18:44:39.440Z,6.40
2019-02-18T18:47:08.505Z,6.30
2019-02-18T18:49:37.517Z,6.30
2019-02-18T18:52:06.597Z,6.30
2019-02-18T18:54:35.583Z,6.20
2019-02-18T18:57:04.727Z,6.20
2019-02-18T18:59:34.227Z,6.10
2019-02-18T19:02:03.196Z,6.10
2019-02-18T19:04:32.180Z,6.10
2019-02-18T19:07:01.850Z,6.10
2019-02-18T19:09:30.950Z,6.10
2019-02-18T19:12:00.076Z,6.00
2019-02-18T19:14:29.372Z,6.10
2019-02-18T19:16:58.395Z,6.10
2019-02-18T19:19:27.519Z,6.10
2019-02-18T19:21:56.480Z,6.10
2019-02-18T19:24:25.477Z,6.10
2019-02-18T19:26:54.597Z,6.10
2019-02-18T19:29:23.890Z,6.00
2019-02-18T19:31:53.130Z,6.10
2019-02-18T19:34:22.097Z,6.50
2019-02-18T19:36:51.040Z,6.40
2019-02-18T19:39:20.202Z,6.30
2019-02-18T19:41:49.297Z,6.20
2019-02-18T19:44:19.911Z,6.30
2019-02-18T19:46:49.135Z,6.30
2019-02-18T19:49:18.302Z,6.20
2019-02-18T19:51:47.405Z,6.10
2019-02-18T19:54:16.505Z,6.10
2019-02-18T19:56:45.591Z,6.10
2019-02-18T19:59:17.969Z,6.00
2019-02-18T20:01:47.119Z,5.90
2019-02-18T20:04:16.210Z,6.00
2019-02-18T20:06:45.342Z,5.90
2019-02-18T20:09:15.648Z,5.90
2019-02-18T20:11:45.023Z,5.90
2019-02-18T20:14:14.053Z,5.90
2019-02-18T20:16:42.997Z,6.10
2019-02-18T20:19:12.020Z,6.10
2019-02-18T20:21:40.947Z,6.10
2019-02-18T20:24:10.067Z,6.20
2019-02-18T20:26:39.452Z,6.20
2019-02-18T20:29:08.449Z,6.20
2019-02-18T20:31:37.622Z,6.10
2019-02-18T20:34:06.680Z,6.20
2019-02-18T20:36:35.802Z,6.10
2019-02-18T20:39:07.282Z,6.10
2019-02-18T20:41:36.373Z,5.90
2019-02-18T20:44:07.570Z,5.80
2019-02-18T20:46:36.169Z,5.70
2019-02-18T20:49:05.198Z,5.70
2019-02-18T20:51:34.432Z,5.80
2019-02-18T20:54:03.644Z,5.70
2019-02-18T20:56:32.820Z,5.60
2019-02-18T20:59:01.964Z,5.60
2019-02-18T21:01:31.016Z,5.70
2019-02-18T21:04:00.051Z,5.70
2019-02-18T21:06:29.083Z,5.60
2019-02-18T21:08:58.148Z,5.50
2019-02-18T21:11:27.165Z,5.50
2019-02-18T21:13:56.191Z,5.50
2019-02-18T21:16:25.260Z,5.50
2019-02-18T21:18:56.232Z,5.60
2019-02-18T21:21:24.924Z,5.60
2019-02-18T21:24:01.895Z,5.70
2019-02-18T21:26:30.919Z,5.60
2019-02-18T21:29:00.087Z,5.60
2019-02-18T21:31:36.797Z,5.50
2019-02-18T21:34:05.874Z,5.50
2019-02-18T21:36:35.226Z,5.40
2019-02-18T21:39:06.957Z,5.30
2019-02-18T21:41:36.088Z,5.30
2019-02-18T21:44:05.097Z,5.30
2019-02-18T21:46:34.103Z,5.40
2019-02-18T21:49:03.136Z,5.30
2019-02-18T21:51:32.433Z,5.30
2019-02-18T21:54:01.470Z,5.30
2019-02-18T21:56:30.482Z,5.40
2019-02-18T21:58:59.522Z,5.40
2019-02-18T22:01:28.579Z,5.40
2019-02-18T22:03:57.645Z,5.40
2019-02-18T22:06:26.917Z,5.40
2019-02-18T22:08:55.963Z,5.30
2019-02-18T22:11:27.622Z,5.20
2019-02-18T22:13:56.759Z,5.10
2019-02-18T22:16:27.242Z,5.10
2019-02-18T22:18:56.210Z,5.00
2019-02-18T22:21:25.705Z,5.00
2019-02-18T22:23:54.898Z,4.90
2019-02-18T22:26:23.879Z,4.70
2019-02-18T22:28:52.851Z,4.50
2019-02-18T22:31:22.059Z,4.40
2019-02-18T22:33:51.139Z,4.20
2019-02-18T22:36:20.227Z,4.10
2019-02-18T22:38:49.328Z,4.00
2019-02-18T22:41:18.405Z,4.00
2019-02-18T22:43:47.432Z,4.00
2019-02-18T22:46:16.451Z,4.00
2019-02-18T22:48:45.558Z,4.20
2019-02-18T22:51:14.569Z,4.20
2019-02-18T22:53:43.779Z,4.30
2019-02-18T22:56:12.831Z,4.30
2019-02-18T22:58:41.881Z,4.40
2019-02-18T23:01:11.670Z,4.30
2019-02-18T23:03:40.886Z,4.20
2019-02-18T23:06:09.975Z,4.10
2019-02-18T23:08:39.481Z,3.90
2019-02-18T23:11:08.527Z,3.90
2019-02-18T23:13:38.708Z,3.80
2019-02-18T23:16:07.812Z,3.70
2019-02-18T23:18:36.879Z,3.80
2019-02-18T23:21:05.976Z,3.70
2019-02-18T23:23:34.997Z,3.70
2019-02-18T23:26:04.055Z,3.70
2019-02-18T23:28:33.055Z,3.60
2019-02-18T23:31:02.462Z,3.60
2019-02-18T23:33:31.533Z,3.60
2019-02-18T23:36:00.651Z,3.60
2019-02-18T23:38:29.728Z,3.50
2019-02-18T23:40:58.964Z,3.50
2019-02-18T23:43:28.665Z,3.50
2019-02-18T23:45:57.670Z,3.50
2019-02-18T23:48:26.691Z,3.60
2019-02-18T23:50:55.730Z,3.60
2019-02-18T23:53:24.803Z,3.60
2019-02-18T23:55:53.953Z,3.50
2019-02-18T23:58:22.964Z,3.60
